KPBI

Palm Beach International Airport

Airport
ICAO code
KPBI
Summary
ICAO Region
NAM
ICAO Territory
Location

West Palm Beach, Florida,

Serving
Palm Beach County, Florida
Coordinates
26° 40' 59" N , 80° 5' 41" W
KCC
Airport LOS
Parallel Runway Operation
Metar
Observation
KPBI 311853Z 13011KT 10SM FEW030 SCT045 28/20 A3017 RMK AO2 SLP214 T02780200
Station
West Palm Beach, Palm Beach International Airport
Date/Time
2023-01-31 18:53:00
Wind direction
130°
Wind speed
11 kts
Lowest cloud amount
few clouds
Temperature
27.8°C
Dew point
20°C
Humidity
62%
Weather condition
n/a

Description

Palm Beach International Airport is a public airport located in West Palm Beach, Florida, and serves Palm Beach County.

Climatology

Tropical Monsoon climate (Köppen climate classification Am) - monthly mean temperatures above 18°C in every month of the year and features wet and dry seasons. A tropical monsoon climate typically features less pronounced dry seasons than a tropical savanna climate and see less variance in temperatures during the course of the year. The driest month nearly always occurs at or soon after the "winter" solstice. Hurricane season runs from July to November but south east Florida is most likely to be hit by Hurricanes in mid August to late September.

Runways

Designator Length Width Surface Rops
10R/28L 979 23 ASPH-G Yes/Yes
14/32 2113 46 ASPH-G Yes/Yes
10L/28R 3050 46 ASPH-G Yes/Yes

Airport map

Aerial View

SKYbrary Partners:

Safety knowledge contributed by: